createdAt,value
2019-05-13T00:02:14.211Z,7.53
2019-05-13T00:04:44.207Z,7.52
2019-05-13T00:07:13.628Z,7.47
2019-05-13T00:09:44.268Z,7.43
2019-05-13T00:12:13.923Z,7.45
2019-05-13T00:14:43.608Z,7.39
2019-05-13T00:17:14.591Z,7.33
2019-05-13T00:19:44.340Z,7.24
2019-05-13T00:22:14.132Z,7.22
2019-05-13T00:24:44.310Z,7.25
2019-05-13T00:27:14.623Z,7.22
2019-05-13T00:29:44.536Z,7.24
2019-05-13T00:32:13.788Z,7.22
2019-05-13T00:34:44.500Z,7.19
2019-05-13T00:37:14.808Z,7.16
2019-05-13T00:39:45.529Z,7.10
2019-05-13T00:42:15.846Z,7.12
2019-05-13T00:44:45.171Z,7.06
2019-05-13T00:47:14.500Z,7.05
2019-05-13T00:49:43.860Z,7.01
2019-05-13T00:52:14.338Z,6.99
2019-05-13T00:54:44.312Z,6.96
2019-05-13T00:57:13.604Z,6.92
2019-05-13T00:59:44.318Z,6.92
2019-05-13T01:02:14.164Z,6.89
2019-05-13T01:04:44.162Z,6.81
2019-05-13T01:07:25.329Z,6.80
2019-05-13T01:09:44.612Z,6.75
2019-05-13T01:12:14.236Z,6.67
2019-05-13T01:14:43.645Z,6.68
2019-05-13T01:17:14.212Z,6.58
2019-05-13T01:19:43.639Z,6.58
2019-05-13T01:22:13.491Z,6.51
2019-05-13T01:24:44.137Z,6.53
2019-05-13T01:27:14.116Z,6.48
2019-05-13T01:29:43.725Z,6.43
2019-05-13T01:32:14.463Z,6.42
2019-05-13T01:34:44.389Z,6.40
2019-05-13T01:37:13.782Z,6.37
2019-05-13T01:39:43.749Z,6.33
2019-05-13T01:42:13.746Z,6.25
2019-05-13T01:44:43.837Z,6.16
2019-05-13T01:47:13.489Z,6.18
2019-05-13T01:49:44.013Z,6.11
2019-05-13T01:52:13.708Z,6.08
2019-05-13T01:54:44.196Z,6.07
2019-05-13T01:57:14.308Z,6.01
2019-05-13T01:59:43.844Z,6.02
2019-05-13T02:02:13.737Z,5.97
2019-05-13T02:04:43.895Z,5.99
2019-05-13T02:07:14.370Z,5.98
2019-05-13T02:09:44.376Z,5.95
2019-05-13T02:12:14.059Z,5.93
2019-05-13T02:14:44.382Z,5.86
2019-05-13T02:17:14.595Z,5.84
2019-05-13T02:19:44.353Z,5.81
2019-05-13T02:22:14.837Z,5.76
2019-05-13T02:24:44.763Z,5.73
2019-05-13T02:27:14.350Z,5.69
2019-05-13T02:29:44.821Z,5.60
2019-05-13T02:32:14.185Z,5.57
2019-05-13T02:34:44.050Z,5.53
2019-05-13T02:37:14.649Z,5.45
2019-05-13T02:39:43.978Z,5.37
2019-05-13T02:42:13.562Z,5.32
2019-05-13T02:44:43.761Z,5.24
2019-05-13T02:47:13.214Z,5.19
2019-05-13T02:49:43.284Z,5.15
2019-05-13T02:52:14.019Z,5.09
2019-05-13T02:54:43.649Z,5.01
2019-05-13T02:57:12.985Z,4.96
2019-05-13T02:59:42.552Z,4.90
2019-05-13T03:02:12.499Z,4.83
2019-05-13T03:04:43.431Z,4.80
2019-05-13T03:07:12.988Z,4.77
2019-05-13T03:09:42.423Z,4.72
2019-05-13T03:12:13.026Z,4.69
2019-05-13T03:14:48.077Z,4.65
2019-05-13T03:17:15.369Z,4.62
2019-05-13T03:19:44.696Z,4.59
2019-05-13T03:22:14.044Z,4.57
2019-05-13T03:24:43.368Z,4.57
2019-05-13T03:27:13.121Z,4.56
2019-05-13T03:29:43.240Z,4.54
2019-05-13T03:32:16.001Z,4.52
2019-05-13T03:34:45.791Z,4.50
2019-05-13T03:37:16.264Z,4.47
2019-05-13T03:39:47.505Z,4.45
2019-05-13T03:42:16.823Z,4.46
2019-05-13T03:44:52.319Z,4.46
2019-05-13T03:47:23.237Z,4.47
2019-05-13T03:49:55.623Z,4.45
2019-05-13T03:52:25.224Z,4.44
2019-05-13T03:54:54.993Z,4.40
2019-05-13T03:57:24.755Z,4.38
2019-05-13T03:59:54.233Z,4.38
2019-05-13T04:02:24.021Z,4.38
2019-05-13T04:04:53.440Z,4.41
2019-05-13T04:07:23.991Z,4.46
2019-05-13T04:09:53.722Z,4.46
2019-05-13T04:12:28.360Z,4.49
2019-05-13T04:14:56.711Z,4.51
2019-05-13T04:17:26.305Z,4.51
2019-05-13T04:19:56.001Z,4.51
2019-05-13T04:22:25.595Z,4.55
2019-05-13T04:24:55.001Z,4.57
2019-05-13T04:27:24.496Z,4.57
2019-05-13T04:29:54.003Z,4.59
2019-05-13T04:32:28.260Z,4.60
2019-05-13T04:34:54.526Z,4.63
2019-05-13T04:37:23.849Z,4.67
2019-05-13T04:39:56.275Z,4.68
2019-05-13T04:42:24.205Z,4.74
2019-05-13T04:44:53.609Z,4.76
2019-05-13T04:47:23.164Z,4.78
2019-05-13T04:49:53.737Z,4.82
2019-05-13T04:52:23.168Z,4.86
2019-05-13T04:54:52.946Z,4.90
2019-05-13T04:57:22.869Z,4.96
2019-05-13T04:59:55.014Z,5.01
2019-05-13T05:02:40.062Z,5.07
2019-05-13T05:05:22.528Z,5.12
2019-05-13T05:08:07.302Z,5.20
2019-05-13T05:10:51.163Z,5.26
2019-05-13T05:13:53.104Z,5.33
2019-05-13T05:16:33.814Z,5.38
2019-05-13T05:19:33.948Z,5.41
2019-05-13T05:22:13.147Z,5.43
2019-05-13T05:24:46.249Z,5.49
2019-05-13T05:27:51.443Z,5.54
2019-05-13T05:30:41.237Z,5.57
2019-05-13T05:33:35.734Z,5.62
2019-05-13T05:36:05.847Z,5.65
2019-05-13T05:38:38.093Z,5.72
2019-05-13T05:41:12.099Z,5.76
2019-05-13T05:43:45.200Z,5.80
2019-05-13T05:46:14.160Z,5.84
2019-05-13T05:48:44.122Z,5.91
2019-05-13T05:51:14.503Z,5.95
2019-05-13T05:53:46.671Z,5.99
2019-05-13T05:56:17.678Z,6.03
2019-05-13T05:58:47.750Z,6.05
2019-05-13T06:01:18.539Z,6.11
2019-05-13T06:03:48.138Z,6.17
2019-05-13T06:06:22.751Z,6.24
2019-05-13T06:08:51.777Z,6.30
2019-05-13T06:11:22.280Z,6.30
2019-05-13T06:13:54.463Z,6.33
2019-05-13T06:16:23.199Z,6.39
2019-05-13T06:18:52.825Z,6.42
2019-05-13T06:21:22.164Z,6.49
2019-05-13T06:23:52.726Z,6.51
2019-05-13T06:26:23.651Z,6.55
2019-05-13T06:28:53.337Z,6.66
2019-05-13T06:31:22.730Z,6.74
2019-05-13T06:33:52.126Z,6.82
2019-05-13T06:36:22.123Z,6.88
2019-05-13T06:38:51.562Z,6.99
2019-05-13T06:41:21.937Z,7.09
2019-05-13T06:43:52.561Z,7.22
2019-05-13T06:46:22.010Z,7.32
2019-05-13T06:48:52.177Z,7.43
2019-05-13T06:51:22.186Z,7.53
2019-05-13T06:53:51.910Z,7.62
2019-05-13T06:56:21.926Z,7.69
2019-05-13T06:58:52.406Z,7.77
2019-05-13T07:01:22.006Z,7.84
2019-05-13T07:03:51.871Z,7.92
2019-05-13T07:06:21.792Z,7.97
2019-05-13T07:08:52.135Z,8.03
2019-05-13T07:11:24.949Z,8.06
2019-05-13T07:13:53.674Z,8.13
2019-05-13T07:16:23.001Z,8.25
2019-05-13T07:18:52.543Z,8.37
2019-05-13T07:21:21.950Z,8.42
2019-05-13T07:23:54.766Z,8.49
2019-05-13T07:26:22.306Z,8.57
2019-05-13T07:28:52.899Z,8.65
2019-05-13T07:31:22.369Z,8.72
2019-05-13T07:33:52.227Z,8.84
2019-05-13T07:36:22.605Z,8.90
2019-05-13T07:38:52.240Z,8.96
2019-05-13T07:41:35.633Z,9.06
2019-05-13T07:43:52.945Z,9.12
2019-05-13T07:46:22.339Z,9.15
2019-05-13T07:48:52.275Z,9.19
2019-05-13T07:51:22.282Z,9.23
2019-05-13T07:53:51.974Z,9.24
2019-05-13T07:56:22.016Z,9.35
2019-05-13T07:58:52.358Z,9.41
2019-05-13T08:01:22.133Z,9.43
2019-05-13T08:03:51.814Z,9.53
2019-05-13T08:06:21.961Z,9.58
2019-05-13T08:08:52.712Z,9.67
2019-05-13T08:11:22.477Z,9.75
2019-05-13T08:13:52.850Z,9.79
2019-05-13T08:16:22.488Z,9.89
2019-05-13T08:18:52.444Z,9.96
2019-05-13T08:21:21.894Z,10.01
2019-05-13T08:23:52.432Z,10.05
2019-05-13T08:26:23.060Z,10.07
2019-05-13T08:29:01.305Z,10.14
2019-05-13T08:31:23.666Z,10.17
2019-05-13T08:33:53.029Z,10.22
2019-05-13T08:36:23.473Z,10.26
2019-05-13T08:38:52.936Z,10.36
2019-05-13T08:41:23.544Z,10.45
2019-05-13T08:43:53.241Z,10.55
2019-05-13T08:46:22.589Z,10.57
2019-05-13T08:48:52.006Z,10.54
2019-05-13T08:51:22.118Z,10.52
2019-05-13T08:53:51.862Z,10.53
2019-05-13T08:56:22.265Z,10.64
2019-05-13T08:58:52.252Z,10.63
2019-05-13T09:01:22.668Z,10.73
2019-05-13T09:03:52.274Z,10.74
2019-05-13T09:06:22.186Z,10.78
2019-05-13T09:08:53.794Z,10.84
2019-05-13T09:11:22.969Z,10.88
2019-05-13T09:13:52.310Z,10.93
2019-05-13T09:16:21.716Z,10.96
2019-05-13T09:18:52.185Z,11.11
2019-05-13T09:21:22.477Z,11.19
2019-05-13T09:23:51.937Z,11.21
2019-05-13T09:26:22.592Z,11.35
2019-05-13T09:28:52.293Z,11.55
2019-05-13T09:31:22.209Z,11.58
2019-05-13T09:33:52.192Z,11.63
2019-05-13T09:36:22.691Z,11.62
2019-05-13T09:38:52.492Z,11.57
2019-05-13T09:41:22.140Z,11.72
2019-05-13T09:43:51.574Z,12.03
2019-05-13T09:46:22.621Z,12.04
2019-05-13T09:48:51.911Z,12.11
2019-05-13T09:51:21.719Z,12.09
2019-05-13T09:53:52.223Z,12.17
2019-05-13T09:56:22.407Z,12.35
2019-05-13T09:58:51.863Z,12.36
2019-05-13T10:01:22.570Z,12.41
2019-05-13T10:06:23.147Z,12.70
2019-05-13T10:08:52.931Z,12.76
2019-05-13T10:11:22.267Z,12.85
2019-05-13T10:13:51.658Z,12.97
2019-05-13T10:16:22.035Z,13.04
2019-05-13T10:18:52.474Z,13.01
2019-05-13T10:21:22.220Z,13.12
2019-05-13T10:23:52.138Z,13.20
2019-05-13T10:26:22.555Z,13.24
2019-05-13T10:28:52.681Z,13.35
2019-05-13T10:31:22.316Z,13.47
2019-05-13T10:33:52.113Z,13.64
2019-05-13T10:36:22.225Z,13.64
2019-05-13T10:38:52.567Z,13.75
2019-05-13T10:41:22.341Z,13.85
2019-05-13T10:43:52.316Z,13.96
2019-05-13T10:46:22.297Z,14.07
2019-05-13T10:48:52.818Z,14.15
2019-05-13T10:51:23.391Z,14.19
2019-05-13T10:53:56.374Z,14.28
2019-05-13T10:56:23.909Z,14.43
2019-05-13T10:58:53.631Z,14.55
2019-05-13T11:01:23.063Z,14.71
2019-05-13T11:03:52.658Z,14.88
2019-05-13T11:06:22.162Z,14.98
2019-05-13T11:08:53.058Z,15.10
2019-05-13T11:11:22.551Z,15.42
2019-05-13T11:16:23.757Z,15.99
2019-05-13T11:18:53.102Z,16.18
2019-05-13T11:21:22.759Z,16.55
2019-05-13T11:23:52.340Z,17.21
2019-05-13T11:26:22.332Z,17.83
2019-05-13T11:28:52.312Z,18.39
2019-05-13T11:31:22.458Z,19.03
2019-05-13T11:33:52.360Z,19.72
2019-05-13T11:36:23.458Z,20.36
2019-05-13T11:38:53.386Z,21.01
2019-05-13T11:41:23.138Z,21.63
2019-05-13T11:44:11.028Z,22.10
2019-05-13T11:46:23.615Z,22.67
2019-05-13T11:48:52.949Z,23.37
2019-05-13T11:51:24.195Z,23.93
2019-05-13T11:53:53.716Z,24.37
2019-05-13T11:56:23.349Z,24.91
2019-05-13T11:58:53.591Z,25.43
2019-05-13T12:01:23.180Z,25.93
2019-05-13T12:03:53.364Z,26.39
2019-05-13T12:06:23.474Z,26.67
2019-05-13T12:08:55.307Z,26.91
2019-05-13T12:11:24.031Z,27.25
2019-05-13T12:13:53.361Z,27.58
2019-05-13T12:16:23.669Z,28.07
2019-05-13T12:18:53.142Z,28.42
2019-05-13T12:21:22.495Z,28.73
2019-05-13T12:26:23.947Z,28.78
2019-05-13T12:31:24.596Z,29.54
2019-05-13T12:33:53.926Z,29.68
2019-05-13T12:36:24.411Z,29.21
2019-05-13T12:38:54.581Z,29.68
2019-05-13T12:41:23.895Z,30.12
2019-05-13T12:43:54.061Z,30.40
2019-05-13T12:46:24.703Z,30.54
2019-05-13T12:48:54.460Z,30.50
2019-05-13T12:51:23.794Z,30.68
2019-05-13T12:53:53.141Z,30.68
2019-05-13T12:56:23.613Z,30.90
2019-05-13T12:58:53.071Z,31.02
2019-05-13T13:01:23.799Z,31.21
2019-05-13T13:03:53.406Z,31.32
2019-05-13T13:06:32.311Z,31.25
2019-05-13T13:08:53.767Z,31.44
2019-05-13T13:11:23.215Z,30.97
2019-05-13T13:13:58.756Z,30.90
2019-05-13T13:16:23.945Z,31.05
2019-05-13T13:18:53.276Z,31.18
2019-05-13T13:21:24.286Z,31.12
2019-05-13T13:23:53.705Z,31.50
2019-05-13T13:26:23.062Z,31.78
2019-05-13T13:28:55.777Z,31.76
2019-05-13T13:31:25.118Z,31.89
2019-05-13T13:33:55.608Z,31.99
2019-05-13T13:36:25.237Z,32.06
2019-05-13T13:38:56.367Z,32.10
2019-05-13T13:41:25.851Z,32.07
2019-05-13T13:43:55.422Z,32.15
2019-05-13T13:46:37.130Z,31.98
2019-05-13T13:48:55.967Z,31.78
2019-05-13T13:51:26.878Z,31.77
2019-05-13T13:53:56.904Z,31.89
2019-05-13T13:56:26.237Z,32.00
2019-05-13T13:58:55.864Z,31.97
2019-05-13T14:01:27.451Z,32.00
2019-05-13T14:03:56.166Z,32.13
2019-05-13T14:06:32.107Z,28.75
2019-05-13T14:06:33.061Z,29.28
2019-05-13T14:07:03.896Z,12.52
2019-05-13T14:07:06.049Z,15.79
2019-05-13T14:07:22.939Z,32.19
2019-05-13T14:08:56.538Z,32.16
2019-05-13T14:11:25.873Z,32.13
2019-05-13T14:13:55.198Z,32.31
2019-05-13T14:16:31.245Z,32.30
2019-05-13T14:18:55.577Z,32.35
2019-05-13T14:21:25.023Z,32.10
2019-05-13T14:23:54.348Z,32.08
2019-05-13T14:26:23.685Z,32.13
2019-05-13T14:28:53.814Z,32.05
2019-05-13T14:31:23.425Z,31.71
2019-05-13T14:33:52.755Z,31.41
2019-05-13T14:36:23.246Z,31.25
2019-05-13T14:38:53.081Z,31.09
2019-05-13T14:41:22.447Z,30.75
2019-05-13T14:43:51.939Z,30.60
2019-05-13T14:46:25.341Z,30.65
2019-05-13T14:48:52.328Z,30.92
2019-05-13T14:51:21.965Z,31.16
2019-05-13T14:53:52.325Z,31.30
2019-05-13T14:56:22.142Z,31.14
2019-05-13T14:58:52.214Z,31.20
2019-05-13T15:01:22.969Z,31.16
2019-05-13T15:03:52.386Z,31.05
2019-05-13T15:06:22.304Z,30.88
2019-05-13T15:08:52.665Z,30.67
2019-05-13T15:11:22.588Z,30.29
2019-05-13T15:13:52.272Z,29.70
2019-05-13T15:16:22.586Z,29.19
2019-05-13T15:18:52.647Z,28.82
2019-05-13T15:21:22.071Z,28.14
2019-05-13T15:23:51.903Z,28.14
2019-05-13T15:26:22.278Z,27.94
2019-05-13T15:28:52.198Z,27.34
2019-05-13T15:31:22.277Z,26.47
2019-05-13T15:33:52.509Z,26.38
2019-05-13T15:36:22.724Z,25.84
2019-05-13T15:38:52.240Z,25.59
2019-05-13T15:41:21.877Z,25.00
2019-05-13T15:43:52.023Z,24.66
2019-05-13T15:46:22.081Z,24.24
2019-05-13T15:48:51.631Z,23.51
2019-05-13T15:51:22.086Z,23.34
2019-05-13T15:53:51.999Z,22.91
2019-05-13T15:56:22.404Z,22.57
2019-05-13T15:59:09.006Z,22.13
2019-05-13T16:01:23.241Z,21.63
2019-05-13T16:03:52.754Z,21.30
2019-05-13T16:06:23.131Z,21.30
2019-05-13T16:08:52.465Z,21.33
2019-05-13T16:11:22.196Z,21.11
2019-05-13T16:13:52.025Z,21.25
2019-05-13T16:16:22.196Z,21.21
2019-05-13T16:18:51.778Z,20.84
2019-05-13T16:21:21.060Z,20.72
2019-05-13T16:23:51.908Z,20.65
2019-05-13T16:26:22.703Z,20.50
2019-05-13T16:28:52.763Z,20.42
2019-05-13T16:31:22.165Z,20.17
2019-05-13T16:33:52.286Z,20.07
2019-05-13T16:36:22.224Z,20.00
2019-05-13T16:38:51.540Z,19.89
2019-05-13T16:41:22.230Z,19.78
2019-05-13T16:43:51.608Z,19.64
2019-05-13T16:46:21.497Z,19.51
2019-05-13T16:48:50.851Z,19.49
2019-05-13T16:51:21.604Z,19.26
2019-05-13T16:53:52.267Z,19.25
2019-05-13T16:56:27.754Z,19.15
2019-05-13T16:58:52.847Z,19.08
2019-05-13T17:01:22.246Z,19.05
2019-05-13T17:03:51.651Z,18.97
2019-05-13T17:06:21.692Z,18.81
2019-05-13T17:08:51.614Z,18.61
2019-05-13T17:11:21.009Z,18.53
2019-05-13T17:13:51.473Z,18.46
2019-05-13T17:16:21.345Z,18.41
2019-05-13T17:18:52.055Z,18.19
2019-05-13T17:21:21.576Z,18.15
2019-05-13T17:23:52.311Z,17.95
2019-05-13T17:26:22.158Z,17.99
2019-05-13T17:28:52.015Z,17.88
2019-05-13T17:31:21.891Z,17.81
2019-05-13T17:33:51.987Z,17.68
2019-05-13T17:36:21.794Z,17.69
2019-05-13T17:38:51.167Z,17.53
2019-05-13T17:41:21.375Z,17.55
2019-05-13T17:43:51.814Z,17.43
2019-05-13T17:46:21.886Z,17.41
2019-05-13T17:48:52.085Z,17.40
2019-05-13T17:51:22.533Z,17.37
2019-05-13T17:53:52.138Z,17.30
2019-05-13T17:56:21.794Z,17.21
2019-05-13T17:58:52.193Z,17.18
2019-05-13T18:01:21.516Z,17.15
2019-05-13T18:03:51.775Z,17.04
2019-05-13T18:06:21.203Z,16.91
2019-05-13T18:08:51.794Z,16.93
2019-05-13T18:11:21.914Z,16.87
2019-05-13T18:13:52.368Z,16.87
2019-05-13T18:16:21.908Z,16.70
2019-05-13T18:18:52.079Z,16.64
2019-05-13T18:21:21.591Z,16.53
2019-05-13T18:23:52.207Z,16.50
2019-05-13T18:26:21.748Z,16.44
2019-05-13T18:28:51.610Z,16.38
2019-05-13T18:31:24.329Z,16.37
2019-05-13T18:33:51.979Z,16.29
2019-05-13T18:36:22.272Z,16.23
2019-05-13T18:38:51.653Z,16.09
2019-05-13T18:41:21.422Z,15.99
2019-05-13T18:43:54.578Z,15.97
2019-05-13T18:46:22.575Z,15.92
2019-05-13T18:48:58.569Z,15.80
2019-05-13T18:51:22.931Z,15.69
2019-05-13T18:53:52.262Z,15.65
2019-05-13T18:56:21.898Z,15.58
2019-05-13T18:58:51.199Z,15.54
2019-05-13T19:01:21.597Z,15.40
2019-05-13T19:03:50.953Z,15.31
2019-05-13T19:06:22.388Z,15.24
2019-05-13T19:08:52.862Z,15.08
2019-05-13T19:11:22.361Z,15.02
2019-05-13T19:13:52.142Z,14.89
2019-05-13T19:16:21.875Z,14.73
2019-05-13T19:18:51.188Z,14.58
2019-05-13T19:21:21.900Z,14.49
2019-05-13T19:23:52.285Z,14.40
2019-05-13T19:26:21.891Z,14.31
2019-05-13T19:28:51.740Z,14.23
2019-05-13T19:31:22.099Z,14.15
2019-05-13T19:33:52.055Z,14.03
2019-05-13T19:36:22.415Z,13.88
2019-05-13T19:38:51.744Z,13.82
2019-05-13T19:41:22.255Z,13.73
2019-05-13T19:43:51.609Z,13.71
2019-05-13T19:46:20.945Z,13.66
2019-05-13T19:48:52.186Z,13.58
2019-05-13T19:51:22.897Z,13.60
2019-05-13T19:53:52.232Z,13.55
2019-05-13T19:56:21.599Z,13.51
2019-05-13T19:58:50.895Z,13.38
2019-05-13T20:01:21.701Z,13.34
2019-05-13T20:03:51.657Z,13.26
2019-05-13T20:06:21.416Z,13.19
2019-05-13T20:08:51.815Z,13.14
2019-05-13T20:13:46.486Z,13.00
2019-05-13T20:16:15.882Z,12.85
2019-05-13T20:18:45.218Z,12.81
2019-05-13T20:21:14.542Z,12.80
2019-05-13T20:23:43.884Z,12.72
2019-05-13T20:26:13.220Z,12.70
2019-05-13T20:28:42.816Z,12.62
2019-05-13T20:31:12.369Z,12.61
2019-05-13T20:33:42.911Z,12.56
2019-05-13T20:36:12.535Z,12.49
2019-05-13T20:38:41.866Z,12.41
2019-05-13T20:41:11.691Z,12.34
2019-05-13T20:43:42.555Z,12.26
2019-05-13T20:46:12.109Z,12.25
2019-05-13T20:48:41.449Z,12.24
2019-05-13T20:51:11.350Z,12.20
2019-05-13T20:53:41.306Z,12.11
2019-05-13T20:56:10.646Z,12.08
2019-05-13T20:58:42.006Z,12.04
2019-05-13T21:01:11.257Z,11.96
2019-05-13T21:03:41.926Z,11.86
2019-05-13T21:06:11.789Z,11.84
2019-05-13T21:08:42.166Z,11.80
2019-05-13T21:11:11.648Z,11.73
2019-05-13T21:13:41.331Z,11.73
2019-05-13T21:16:11.432Z,11.70
2019-05-13T21:18:42.194Z,11.64
2019-05-13T21:21:11.943Z,11.58
2019-05-13T21:23:41.838Z,11.58
2019-05-13T21:26:15.028Z,11.51
2019-05-13T21:28:42.521Z,11.42
2019-05-13T21:31:11.855Z,11.37
2019-05-13T21:33:41.181Z,11.29
2019-05-13T21:36:12.262Z,11.24
2019-05-13T21:38:41.740Z,11.21
2019-05-13T21:41:11.751Z,11.15
2019-05-13T21:43:41.512Z,11.08
2019-05-13T21:46:12.031Z,11.07
2019-05-13T21:48:41.738Z,11.00
2019-05-13T21:51:13.388Z,10.94
2019-05-13T21:53:42.170Z,10.95
2019-05-13T21:56:12.186Z,10.91
2019-05-13T21:58:41.753Z,10.86
2019-05-13T22:01:11.126Z,10.79
2019-05-13T22:03:41.984Z,10.72
2019-05-13T22:06:11.513Z,10.69
2019-05-13T22:08:41.238Z,10.57
2019-05-13T22:11:12.056Z,10.49
2019-05-13T22:13:42.003Z,10.48
2019-05-13T22:16:11.455Z,10.45
2019-05-13T22:18:41.781Z,10.41
2019-05-13T22:21:12.171Z,10.34
2019-05-13T22:23:41.498Z,10.32
2019-05-13T22:26:11.697Z,10.29
2019-05-13T22:28:42.111Z,10.32
2019-05-13T22:31:11.746Z,10.21
2019-05-13T22:33:41.344Z,10.14
2019-05-13T22:36:11.831Z,10.12
2019-05-13T22:38:42.665Z,10.12
2019-05-13T22:41:12.059Z,10.08
2019-05-13T22:43:54.357Z,10.05
2019-05-13T22:46:14.207Z,10.02
2019-05-13T22:48:44.763Z,9.94
2019-05-13T22:51:14.088Z,9.94
2019-05-13T22:53:44.490Z,9.91
2019-05-13T22:56:13.824Z,9.89
2019-05-13T22:58:43.168Z,9.80
2019-05-13T23:01:12.480Z,9.79
2019-05-13T23:03:41.805Z,9.77
2019-05-13T23:06:12.098Z,9.66
2019-05-13T23:08:41.527Z,9.63
2019-05-13T23:11:11.819Z,9.62
2019-05-13T23:13:42.128Z,9.57
2019-05-13T23:16:11.822Z,9.52
2019-05-13T23:18:42.117Z,9.51
2019-05-13T23:21:11.561Z,9.51
2019-05-13T23:23:40.880Z,9.51
2019-05-13T23:26:11.960Z,9.39
2019-05-13T23:28:42.357Z,9.39
2019-05-13T23:31:12.361Z,9.39
2019-05-13T23:33:41.906Z,9.34
2019-05-13T23:36:11.939Z,9.33
2019-05-13T23:38:41.574Z,9.20
2019-05-13T23:41:11.470Z,9.21
2019-05-13T23:43:41.038Z,9.22
2019-05-13T23:46:11.784Z,9.19
2019-05-13T23:48:42.314Z,9.14
2019-05-13T23:51:13.012Z,9.10
2019-05-13T23:53:42.443Z,9.01
2019-05-13T23:56:11.769Z,8.96
2019-05-13T23:58:41.548Z,8.92
